Brooklin, ME (04616)

1:32 PM EDT on July 24, 2016 (GMT -0400)
Southeast Harbor Stonington, ME | | Change Station

Elev 28 ft 44.20 °N, 68.64 °W | Updated 20 seconds ago

Clear
Clear
78.1 °F
Feels Like 79 °F
N
0.0
Wind Variable Wind from North
Gusts 0.0 mph

Today
High -- | Low -- °F
--% Chance of Precip.
Yesterday
High -- | Low -- °F
Precip. -- in
Pressure 29.89 in
Visibility 10.0 miles
Clouds Clear
Heat Index 79 °F
Dew Point 58 °F
Humidity 50%
Rainfall 0.00 in
Snow Depth Not available.
5:13 AM 8:07 PM
Waning Gibbous, 74% visible
METAR KBHB 241656Z AUTO VRB04KT 10SM CLR 27/15 A2988 RMK AO2 SLP120 T02670150
Pressure 29.89 in
Visibility 10.0 miles
Clouds Clear
Heat Index 79 °F
Dew Point 58 °F
Humidity 50%
Rainfall 0.00 in
Snow Depth Not available.
5:13 AM 8:07 PM
Waning Gibbous, 74% visible
METAR KBHB 241656Z AUTO VRB04KT 10SM CLR 27/15 A2988 RMK AO2 SLP120 T02670150

10-Day Weather Forecast

Almanac

Astronomy

Jul. 24, 2016 Rise Set
Actual Time
Civil Twilight
Nautical Twilight
Astronomical Twilight
Moon
Length of Visible Light
Length of Day
Tomorrow will be .
, % of the Moon is Illuminated

Today's Extremes

State Highs State Lows

Community

WunderPhotos

Upload Photos

1,927,132 photos uploaded!

WunderBlog® & News

Nearby

Air Quality

  Air Quality AQ Index Pollutant
Not available.

Snow Depth

Station Depth Elevation

Earthquake Activity

City Distance Mag. Time & Date
Minimum magnitude displayed is 2.5.

Coastal Water Temperatures

Place Temperature

Stations

Nearby Weather Stations

Station Location Temp. Windchill Dew Point Humidity Wind Precip. Elev Updated Type
                   

Watches & Warnings

There are currently no watches in effect.